Metar GG30 METAR message from awiacja.imgw.pl Metar G30 EPZG METAR EPZG 201530Z 19010KT 9999 BKN036 08/01 Q1017 =